sensor_id;sensor_type;location;lat;lon;timestamp;pressure;altitude;pressure_sealevel;temperature;humidity
9225;BME280;4647;48.072;11.616;2024-01-27T00:00:05;96864.66;;;2.23;88.79
9225;BME280;4647;48.072;11.616;2024-01-27T00:02:33;96855.38;;;2.21;88.64
9225;BME280;4647;48.072;11.616;2024-01-27T00:05:03;96856.47;;;2.20;88.53
9225;BME280;4647;48.072;11.616;2024-01-27T00:07:31;96860.25;;;2.19;88.94
9225;BME280;4647;48.072;11.616;2024-01-27T00:10:00;96853.97;;;2.14;88.79
9225;BME280;4647;48.072;11.616;2024-01-27T00:12:28;96856.63;;;2.06;89.27
9225;BME280;4647;48.072;11.616;2024-01-27T00:14:59;96845.47;;;2.04;89.28
9225;BME280;4647;48.072;11.616;2024-01-27T00:17:28;96850.50;;;2.05;89.18
9225;BME280;4647;48.072;11.616;2024-01-27T00:19:57;96848.47;;;2.02;89.49
9225;BME280;4647;48.072;11.616;2024-01-27T00:22:25;96845.63;;;1.81;90.56
9225;BME280;4647;48.072;11.616;2024-01-27T00:24:54;96834.00;;;1.77;91.37
9225;BME280;4647;48.072;11.616;2024-01-27T00:27:22;96831.03;;;1.96;90.45
9225;BME280;4647;48.072;11.616;2024-01-27T00:29:50;96828.78;;;2.07;89.32
9225;BME280;4647;48.072;11.616;2024-01-27T00:32:21;96824.09;;;2.04;88.98
9225;BME280;4647;48.072;11.616;2024-01-27T00:34:50;96821.41;;;2.04;89.16
9225;BME280;4647;48.072;11.616;2024-01-27T00:37:18;96818.28;;;2.02;89.20
9225;BME280;4647;48.072;11.616;2024-01-27T00:39:47;96827.41;;;2.01;89.18
9225;BME280;4647;48.072;11.616;2024-01-27T00:42:15;96830.53;;;2.03;89.07
9225;BME280;4647;48.072;11.616;2024-01-27T00:44:49;96839.66;;;1.84;90.17
9225;BME280;4647;48.072;11.616;2024-01-27T00:47:18;96842.81;;;1.69;91.43
9225;BME280;4647;48.072;11.616;2024-01-27T00:49:49;96843.06;;;1.42;93.23
9225;BME280;4647;48.072;11.616;2024-01-27T00:52:19;96848.41;;;1.25;93.87
9225;BME280;4647;48.072;11.616;2024-01-27T00:54:48;96843.31;;;1.06;94.72
9225;BME280;4647;48.072;11.616;2024-01-27T00:57:16;96846.13;;;1.01;95.00
9225;BME280;4647;48.072;11.616;2024-01-27T00:59:45;96835.16;;;1.02;96.03
9225;BME280;4647;48.072;11.616;2024-01-27T01:02:13;96858.69;;;1.00;96.36
9225;BME280;4647;48.072;11.616;2024-01-27T01:04:41;96858.72;;;1.09;96.41
9225;BME280;4647;48.072;11.616;2024-01-27T01:07:13;96857.84;;;0.91;96.64
9225;BME280;4647;48.072;11.616;2024-01-27T01:09:41;96859.56;;;0.87;97.26
9225;BME280;4647;48.072;11.616;2024-01-27T01:12:10;96872.91;;;0.87;97.90
9225;BME280;4647;48.072;11.616;2024-01-27T01:14:40;96866.63;;;0.83;98.00
9225;BME280;4647;48.072;11.616;2024-01-27T01:17:08;96869.56;;;0.73;98.65
9225;BME280;4647;48.072;11.616;2024-01-27T01:19:37;96866.75;;;0.78;98.23
9225;BME280;4647;48.072;11.616;2024-01-27T01:22:05;96863.09;;;0.96;98.17
9225;BME280;4647;48.072;11.616;2024-01-27T01:24:37;96856.91;;;0.87;97.68
9225;BME280;4647;48.072;11.616;2024-01-27T01:27:05;96871.19;;;0.91;97.75
9225;BME280;4647;48.072;11.616;2024-01-27T01:29:34;96873.22;;;0.85;97.62
9225;BME280;4647;48.072;11.616;2024-01-27T01:32:03;96863.03;;;0.87;97.93
9225;BME280;4647;48.072;11.616;2024-01-27T01:34:31;96864.50;;;0.63;97.91
9225;BME280;4647;48.072;11.616;2024-01-27T01:36:59;96871.72;;;0.71;98.41
9225;BME280;4647;48.072;11.616;2024-01-27T01:39:28;96870.22;;;0.78;98.16
9225;BME280;4647;48.072;11.616;2024-01-27T01:41:59;96863.25;;;1.00;98.05
9225;BME280;4647;48.072;11.616;2024-01-27T01:44:30;96872.66;;;0.97;97.78
9225;BME280;4647;48.072;11.616;2024-01-27T01:46:58;96880.75;;;1.23;96.83
9225;BME280;4647;48.072;11.616;2024-01-27T01:49:28;96882.75;;;1.17;97.08
9225;BME280;4647;48.072;11.616;2024-01-27T01:51:57;96876.34;;;1.18;97.29
9225;BME280;4647;48.072;11.616;2024-01-27T01:54:26;96878.09;;;1.32;96.17
9225;BME280;4647;48.072;11.616;2024-01-27T01:56:59;96877.78;;;1.33;96.28
9225;BME280;4647;48.072;11.616;2024-01-27T01:59:28;96879.34;;;1.34;95.62
9225;BME280;4647;48.072;11.616;2024-01-27T02:01:56;96890.16;;;1.20;96.11
9225;BME280;4647;48.072;11.616;2024-01-27T02:04:25;96891.75;;;1.21;95.96
9225;BME280;4647;48.072;11.616;2024-01-27T02:06:53;96888.06;;;1.09;95.47
9225;BME280;4647;48.072;11.616;2024-01-27T02:09:19;96900.63;;;1.08;95.46
9225;BME280;4647;48.072;11.616;2024-01-27T02:11:48;96897.78;;;1.05;95.78
9225;BME280;4647;48.072;11.616;2024-01-27T02:14:19;96886.97;;;1.10;95.71
9225;BME280;4647;48.072;11.616;2024-01-27T02:16:50;96906.19;;;0.89;96.07
9225;BME280;4647;48.072;11.616;2024-01-27T02:19:19;96909.41;;;1.09;95.74
9225;BME280;4647;48.072;11.616;2024-01-27T02:21:47;96904.03;;;1.40;93.88
9225;BME280;4647;48.072;11.616;2024-01-27T02:24:18;96910.34;;;1.44;93.22
9225;BME280;4647;48.072;11.616;2024-01-27T02:26:47;96905.94;;;1.48;92.72
9225;BME280;4647;48.072;11.616;2024-01-27T02:29:15;96902.72;;;1.20;93.30
9225;BME280;4647;48.072;11.616;2024-01-27T02:31:45;96904.88;;;1.09;94.58
9225;BME280;4647;48.072;11.616;2024-01-27T02:34:13;96901.72;;;1.07;94.09
9225;BME280;4647;48.072;11.616;2024-01-27T02:36:42;96911.63;;;1.07;94.48
9225;BME280;4647;48.072;11.616;2024-01-27T02:39:10;96913.44;;;1.29;92.95
9225;BME280;4647;48.072;11.616;2024-01-27T02:41:41;96908.94;;;1.46;92.01
9225;BME280;4647;48.072;11.616;2024-01-27T02:44:09;96902.56;;;1.25;92.49
9225;BME280;4647;48.072;11.616;2024-01-27T02:46:38;96912.53;;;1.02;93.32
9225;BME280;4647;48.072;11.616;2024-01-27T02:49:08;96916.00;;;1.03;93.69
9225;BME280;4647;48.072;11.616;2024-01-27T02:51:36;96920.88;;;1.09;93.41
9225;BME280;4647;48.072;11.616;2024-01-27T02:54:04;96906.69;;;1.40;91.21
9225;BME280;4647;48.072;11.616;2024-01-27T02:56:33;96914.59;;;1.45;90.64
9225;BME280;4647;48.072;11.616;2024-01-27T02:59:04;96905.75;;;1.36;90.71
9225;BME280;4647;48.072;11.616;2024-01-27T03:01:32;96910.91;;;1.23;91.29
9225;BME280;4647;48.072;11.616;2024-01-27T03:04:01;96906.75;;;1.09;92.17
9225;BME280;4647;48.072;11.616;2024-01-27T03:06:30;96911.38;;;1.26;91.32
9225;BME280;4647;48.072;11.616;2024-01-27T03:08:58;96912.72;;;1.06;92.45
9225;BME280;4647;48.072;11.616;2024-01-27T03:11:26;96908.44;;;0.96;92.72
9225;BME280;4647;48.072;11.616;2024-01-27T03:13:55;96912.09;;;1.09;92.16
9225;BME280;4647;48.072;11.616;2024-01-27T03:16:26;96914.50;;;1.19;91.97
9225;BME280;4647;48.072;11.616;2024-01-27T03:18:55;96919.78;;;1.10;91.77
9225;BME280;4647;48.072;11.616;2024-01-27T03:21:25;96924.03;;;1.11;92.04
9225;BME280;4647;48.072;11.616;2024-01-27T03:23:58;96930.06;;;0.95;92.90
9225;BME280;4647;48.072;11.616;2024-01-27T03:26:27;96924.56;;;0.91;92.75
9225;BME280;4647;48.072;11.616;2024-01-27T03:28:56;96938.84;;;1.26;91.71
9225;BME280;4647;48.072;11.616;2024-01-27T03:31:35;96944.50;;;1.25;91.30
9225;BME280;4647;48.072;11.616;2024-01-27T03:34:05;96940.84;;;1.12;91.83
9225;BME280;4647;48.072;11.616;2024-01-27T03:36:33;96956.94;;;0.98;92.42
9225;BME280;4647;48.072;11.616;2024-01-27T03:39:02;96955.41;;;1.06;92.42
9225;BME280;4647;48.072;11.616;2024-01-27T03:41:32;96959.16;;;1.36;90.93
9225;BME280;4647;48.072;11.616;2024-01-27T03:44:01;96958.22;;;1.40;90.65
9225;BME280;4647;48.072;11.616;2024-01-27T03:46:32;96967.63;;;1.38;90.35
9225;BME280;4647;48.072;11.616;2024-01-27T03:49:00;96970.91;;;1.35;90.74
9225;BME280;4647;48.072;11.616;2024-01-27T03:51:29;96978.38;;;1.15;91.47
9225;BME280;4647;48.072;11.616;2024-01-27T03:53:57;96979.50;;;0.92;92.70
9225;BME280;4647;48.072;11.616;2024-01-27T03:56:26;96984.25;;;0.95;92.86
9225;BME280;4647;48.072;11.616;2024-01-27T03:58:54;96984.69;;;1.19;91.94
9225;BME280;4647;48.072;11.616;2024-01-27T04:01:22;96984.56;;;1.33;91.21
9225;BME280;4647;48.072;11.616;2024-01-27T04:03:53;96986.00;;;1.31;91.08
9225;BME280;4647;48.072;11.616;2024-01-27T04:06:22;96971.75;;;1.13;91.45
9225;BME280;4647;48.072;11.616;2024-01-27T04:08:50;96980.56;;;1.13;91.67
9225;BME280;4647;48.072;11.616;2024-01-27T04:11:19;96970.25;;;1.20;91.50
9225;BME280;4647;48.072;11.616;2024-01-27T04:13:49;96983.78;;;1.33;91.05
9225;BME280;4647;48.072;11.616;2024-01-27T04:16:18;96990.50;;;1.21;91.38
9225;BME280;4647;48.072;11.616;2024-01-27T04:18:46;96985.91;;;1.13;92.46
9225;BME280;4647;48.072;11.616;2024-01-27T04:21:17;96993.22;;;0.99;92.13
9225;BME280;4647;48.072;11.616;2024-01-27T04:23:46;96984.13;;;1.00;92.74
9225;BME280;4647;48.072;11.616;2024-01-27T04:26:14;96989.31;;;1.05;92.02
9225;BME280;4647;48.072;11.616;2024-01-27T04:28:43;96988.25;;;0.84;92.87
9225;BME280;4647;48.072;11.616;2024-01-27T04:31:11;97001.53;;;0.75;93.44
9225;BME280;4647;48.072;11.616;2024-01-27T04:33:40;96986.56;;;0.66;93.58
9225;BME280;4647;48.072;11.616;2024-01-27T04:36:08;96990.44;;;0.37;94.23
9225;BME280;4647;48.072;11.616;2024-01-27T04:38:39;96986.81;;;0.55;94.00
9225;BME280;4647;48.072;11.616;2024-01-27T04:41:08;96986.78;;;1.00;92.54
9225;BME280;4647;48.072;11.616;2024-01-27T04:43:36;96985.59;;;1.15;91.39
9225;BME280;4647;48.072;11.616;2024-01-27T04:46:05;96989.59;;;0.73;92.51
9225;BME280;4647;48.072;11.616;2024-01-27T04:48:33;96986.81;;;0.55;93.98
9225;BME280;4647;48.072;11.616;2024-01-27T04:51:02;96991.56;;;0.45;94.05
9225;BME280;4647;48.072;11.616;2024-01-27T05:01:18;96995.81;;;0.46;94.68
9225;BME280;4647;48.072;11.616;2024-01-27T05:03:47;96994.63;;;0.74;93.17
9225;BME280;4647;48.072;11.616;2024-01-27T05:06:15;96995.28;;;0.80;92.65
9225;BME280;4647;48.072;11.616;2024-01-27T05:08:44;97001.94;;;0.91;91.92
9225;BME280;4647;48.072;11.616;2024-01-27T05:11:12;97006.63;;;0.85;92.09
9225;BME280;4647;48.072;11.616;2024-01-27T05:13:41;97007.28;;;0.91;91.64
9225;BME280;4647;48.072;11.616;2024-01-27T05:16:10;97005.59;;;0.73;92.06
9225;BME280;4647;48.072;11.616;2024-01-27T05:18:41;97016.06;;;0.91;91.52
9225;BME280;4647;48.072;11.616;2024-01-27T05:21:09;97011.75;;;0.37;93.08
9225;BME280;4647;48.072;11.616;2024-01-27T05:23:38;97010.25;;;-0.05;94.53
9225;BME280;4647;48.072;11.616;2024-01-27T05:26:07;97017.97;;;-0.31;95.22
9225;BME280;4647;48.072;11.616;2024-01-27T05:28:36;97023.41;;;-0.50;95.67
9225;BME280;4647;48.072;11.616;2024-01-27T05:31:06;97027.38;;;-0.47;96.98
9225;BME280;4647;48.072;11.616;2024-01-27T05:33:37;97032.00;;;-0.39;97.43
9225;BME280;4647;48.072;11.616;2024-01-27T05:36:08;97032.78;;;-0.52;97.52
9225;BME280;4647;48.072;11.616;2024-01-27T05:38:37;97039.41;;;-0.36;97.50
9225;BME280;4647;48.072;11.616;2024-01-27T05:41:05;97045.72;;;-0.46;97.28
9225;BME280;4647;48.072;11.616;2024-01-27T05:43:33;97047.06;;;-0.62;97.50
9225;BME280;4647;48.072;11.616;2024-01-27T05:46:02;97047.91;;;-0.80;98.50
9225;BME280;4647;48.072;11.616;2024-01-27T05:48:31;97045.34;;;-0.85;98.71
9225;BME280;4647;48.072;11.616;2024-01-27T05:51:00;97047.59;;;-0.93;98.77
9225;BME280;4647;48.072;11.616;2024-01-27T05:53:35;97047.97;;;-0.99;98.98
9225;BME280;4647;48.072;11.616;2024-01-27T05:56:03;97049.84;;;-1.00;99.11
9225;BME280;4647;48.072;11.616;2024-01-27T05:58:32;97051.00;;;-1.06;99.71
9225;BME280;4647;48.072;11.616;2024-01-27T06:01:00;97051.91;;;-0.97;98.54
9225;BME280;4647;48.072;11.616;2024-01-27T06:03:29;97058.53;;;-0.94;99.25
9225;BME280;4647;48.072;11.616;2024-01-27T06:05:57;97067.75;;;-1.05;99.79
9225;BME280;4647;48.072;11.616;2024-01-27T06:08:26;97072.97;;;-1.00;100.00
9225;BME280;4647;48.072;11.616;2024-01-27T06:10:57;97068.00;;;-0.88;99.96
9225;BME280;4647;48.072;11.616;2024-01-27T06:13:25;97074.66;;;-1.04;99.67
9225;BME280;4647;48.072;11.616;2024-01-27T06:15:54;97075.25;;;-1.07;99.79
9225;BME280;4647;48.072;11.616;2024-01-27T06:18:22;97075.13;;;-1.16;99.59
9225;BME280;4647;48.072;11.616;2024-01-27T06:20:51;97078.97;;;-1.08;98.86
9225;BME280;4647;48.072;11.616;2024-01-27T06:23:19;97075.47;;;-1.23;99.07
9225;BME280;4647;48.072;11.616;2024-01-27T06:25:48;97069.56;;;-1.19;99.52
9225;BME280;4647;48.072;11.616;2024-01-27T06:28:19;97080.50;;;-1.21;99.30
9225;BME280;4647;48.072;11.616;2024-01-27T06:30:47;97077.28;;;-1.18;99.98
9225;BME280;4647;48.072;11.616;2024-01-27T06:33:16;97087.88;;;-0.99;99.41
9225;BME280;4647;48.072;11.616;2024-01-27T06:35:44;97083.88;;;-1.15;99.96
9225;BME280;4647;48.072;11.616;2024-01-27T06:38:13;97080.50;;;-1.21;99.88
9225;BME280;4647;48.072;11.616;2024-01-27T06:40:41;97072.66;;;-1.12;99.67
9225;BME280;4647;48.072;11.616;2024-01-27T06:43:12;97079.34;;;-1.15;100.00
9225;BME280;4647;48.072;11.616;2024-01-27T06:45:43;97084.28;;;-1.08;100.00
9225;BME280;4647;48.072;11.616;2024-01-27T06:48:12;97086.38;;;-1.24;100.00
9225;BME280;4647;48.072;11.616;2024-01-27T06:50:40;97082.91;;;-1.06;100.00
9225;BME280;4647;48.072;11.616;2024-01-27T06:53:09;97088.84;;;-0.95;100.00
9225;BME280;4647;48.072;11.616;2024-01-27T06:55:38;97082.31;;;-1.16;99.84
9225;BME280;4647;48.072;11.616;2024-01-27T06:58:06;97090.91;;;-1.25;100.00
9225;BME280;4647;48.072;11.616;2024-01-27T07:00:34;97093.06;;;-1.27;100.00
9225;BME280;4647;48.072;11.616;2024-01-27T07:03:06;97099.19;;;-1.26;100.00
9225;BME280;4647;48.072;11.616;2024-01-27T07:05:34;97098.09;;;-1.25;100.00
9225;BME280;4647;48.072;11.616;2024-01-27T07:08:06;97102.91;;;-1.08;100.00
9225;BME280;4647;48.072;11.616;2024-01-27T07:10:35;97091.78;;;-1.10;100.00
9225;BME280;4647;48.072;11.616;2024-01-27T07:13:05;97090.97;;;-0.92;100.00
9225;BME280;4647;48.072;11.616;2024-01-27T07:15:34;97094.06;;;-1.04;100.00
9225;BME280;4647;48.072;11.616;2024-01-27T07:18:06;97103.47;;;-0.93;100.00
9225;BME280;4647;48.072;11.616;2024-01-27T07:20:35;97105.41;;;-0.98;100.00
9225;BME280;4647;48.072;11.616;2024-01-27T07:23:04;97106.69;;;-0.96;100.00
9225;BME280;4647;48.072;11.616;2024-01-27T07:25:32;97108.91;;;-0.84;100.00
9225;BME280;4647;48.072;11.616;2024-01-27T07:28:01;97109.56;;;-0.59;100.00
9225;BME280;4647;48.072;11.616;2024-01-27T07:30:30;97117.66;;;-0.65;100.00
9225;BME280;4647;48.072;11.616;2024-01-27T07:32:59;97108.38;;;-0.67;100.00
9225;BME280;4647;48.072;11.616;2024-01-27T07:35:30;97110.34;;;-0.59;100.00
9225;BME280;4647;48.072;11.616;2024-01-27T07:37:58;97112.34;;;-0.51;100.00
9225;BME280;4647;48.072;11.616;2024-01-27T07:40:26;97104.97;;;-0.40;100.00
9225;BME280;4647;48.072;11.616;2024-01-27T07:42:55;97106.16;;;-0.33;100.00
9225;BME280;4647;48.072;11.616;2024-01-27T07:45:23;97105.38;;;-0.33;100.00
9225;BME280;4647;48.072;11.616;2024-01-27T07:47:52;97109.03;;;-0.15;100.00
9225;BME280;4647;48.072;11.616;2024-01-27T07:50:22;97115.06;;;-0.10;100.00
9225;BME280;4647;48.072;11.616;2024-01-27T07:52:53;97112.28;;;-0.05;100.00
9225;BME280;4647;48.072;11.616;2024-01-27T07:55:22;97117.31;;;0.11;100.00
9225;BME280;4647;48.072;11.616;2024-01-27T07:57:51;97117.22;;;0.16;100.00
9225;BME280;4647;48.072;11.616;2024-01-27T08:00:20;97120.56;;;0.21;100.00
9225;BME280;4647;48.072;11.616;2024-01-27T08:02:51;97122.66;;;0.24;100.00
9225;BME280;4647;48.072;11.616;2024-01-27T08:05:19;97126.16;;;0.47;100.00
9225;BME280;4647;48.072;11.616;2024-01-27T08:07:47;97123.78;;;0.59;99.66
9225;BME280;4647;48.072;11.616;2024-01-27T08:10:18;97117.66;;;0.73;99.31
9225;BME280;4647;48.072;11.616;2024-01-27T08:12:47;97122.47;;;0.71;99.87
9225;BME280;4647;48.072;11.616;2024-01-27T08:15:15;97120.78;;;0.75;100.00
9225;BME280;4647;48.072;11.616;2024-01-27T08:17:44;97119.66;;;0.89;99.77
9225;BME280;4647;48.072;11.616;2024-01-27T08:20:12;97115.06;;;1.04;99.17
9225;BME280;4647;48.072;11.616;2024-01-27T08:22:41;97119.47;;;1.08;99.25
9225;BME280;4647;48.072;11.616;2024-01-27T08:25:09;97120.94;;;1.14;99.16
9225;BME280;4647;48.072;11.616;2024-01-27T08:27:40;97131.31;;;1.16;99.34
9225;BME280;4647;48.072;11.616;2024-01-27T08:30:10;97123.38;;;1.25;99.02
9225;BME280;4647;48.072;11.616;2024-01-27T08:32:39;97134.16;;;1.42;99.21
9225;BME280;4647;48.072;11.616;2024-01-27T08:35:08;97129.81;;;1.46;98.40
9225;BME280;4647;48.072;11.616;2024-01-27T08:37:36;97139.75;;;1.54;96.71
9225;BME280;4647;48.072;11.616;2024-01-27T08:40:08;97137.66;;;1.73;95.59
9225;BME280;4647;48.072;11.616;2024-01-27T08:42:40;97144.78;;;1.87;94.17
9225;BME280;4647;48.072;11.616;2024-01-27T08:45:09;97140.13;;;2.01;93.67
9225;BME280;4647;48.072;11.616;2024-01-27T08:47:37;97144.84;;;1.95;93.55
9225;BME280;4647;48.072;11.616;2024-01-27T08:50:07;97142.72;;;1.83;95.11
9225;BME280;4647;48.072;11.616;2024-01-27T08:52:36;97133.91;;;2.14;92.20
9225;BME280;4647;48.072;11.616;2024-01-27T08:55:05;97137.41;;;2.32;91.07
9225;BME280;4647;48.072;11.616;2024-01-27T08:57:33;97145.25;;;2.20;92.14
9225;BME280;4647;48.072;11.616;2024-01-27T09:00:05;97142.00;;;2.49;89.93
9225;BME280;4647;48.072;11.616;2024-01-27T09:02:34;97134.50;;;2.68;86.90
9225;BME280;4647;48.072;11.616;2024-01-27T09:05:03;97145.63;;;2.53;89.09
9225;BME280;4647;48.072;11.616;2024-01-27T09:07:33;97146.25;;;2.41;88.95
9225;BME280;4647;48.072;11.616;2024-01-27T09:10:02;97146.47;;;2.62;89.61
9225;BME280;4647;48.072;11.616;2024-01-27T09:12:30;97147.69;;;2.56;88.84
9225;BME280;4647;48.072;11.616;2024-01-27T09:14:59;97148.19;;;2.75;88.60
9225;BME280;4647;48.072;11.616;2024-01-27T09:17:31;97150.28;;;2.87;86.80
9225;BME280;4647;48.072;11.616;2024-01-27T09:20:00;97152.31;;;2.90;87.14
9225;BME280;4647;48.072;11.616;2024-01-27T09:22:29;97158.75;;;2.71;87.16
9225;BME280;4647;48.072;11.616;2024-01-27T09:24:57;97145.72;;;2.87;86.85
9225;BME280;4647;48.072;11.616;2024-01-27T09:27:26;97147.59;;;2.95;86.30
9225;BME280;4647;48.072;11.616;2024-01-27T09:29:54;97150.59;;;3.20;83.78
9225;BME280;4647;48.072;11.616;2024-01-27T09:32:23;97158.31;;;3.04;85.14
9225;BME280;4647;48.072;11.616;2024-01-27T09:34:54;97149.66;;;2.98;85.82
9225;BME280;4647;48.072;11.616;2024-01-27T09:37:22;97152.94;;;3.21;84.57
9225;BME280;4647;48.072;11.616;2024-01-27T09:39:51;97152.78;;;3.44;83.41
9225;BME280;4647;48.072;11.616;2024-01-27T09:42:20;97153.53;;;3.53;83.73
9225;BME280;4647;48.072;11.616;2024-01-27T09:44:49;97161.06;;;3.85;82.19
9225;BME280;4647;48.072;11.616;2024-01-27T09:47:17;97169.31;;;3.63;80.29
9225;BME280;4647;48.072;11.616;2024-01-27T09:49:47;97175.16;;;3.48;80.79
9225;BME280;4647;48.072;11.616;2024-01-27T09:52:19;97179.91;;;3.33;81.29
9225;BME280;4647;48.072;11.616;2024-01-27T09:54:47;97177.19;;;3.51;80.71
9225;BME280;4647;48.072;11.616;2024-01-27T09:57:16;97170.75;;;3.43;80.91
9225;BME280;4647;48.072;11.616;2024-01-27T09:59:47;97175.59;;;3.67;79.73
9225;BME280;4647;48.072;11.616;2024-01-27T10:02:17;97176.56;;;3.62;79.78
9225;BME280;4647;48.072;11.616;2024-01-27T10:04:47;97178.63;;;3.39;80.06
9225;BME280;4647;48.072;11.616;2024-01-27T10:07:19;97176.69;;;3.75;79.32
9225;BME280;4647;48.072;11.616;2024-01-27T10:09:49;97185.94;;;3.94;78.96
9225;BME280;4647;48.072;11.616;2024-01-27T10:12:18;97186.47;;;3.70;78.66
9225;BME280;4647;48.072;11.616;2024-01-27T10:14:48;97184.38;;;3.93;78.78
9225;BME280;4647;48.072;11.616;2024-01-27T10:17:21;97180.97;;;4.22;77.18
9225;BME280;4647;48.072;11.616;2024-01-27T10:20:01;97188.63;;;4.03;77.00
9225;BME280;4647;48.072;11.616;2024-01-27T10:22:39;97185.69;;;4.25;77.49
9225;BME280;4647;48.072;11.616;2024-01-27T10:25:09;97174.06;;;4.13;78.75
9225;BME280;4647;48.072;11.616;2024-01-27T10:27:35;97164.31;;;4.08;78.71
9225;BME280;4647;48.072;11.616;2024-01-27T10:30:04;97166.34;;;4.11;78.75
9225;BME280;4647;48.072;11.616;2024-01-27T10:32:33;97164.22;;;4.25;76.83
9225;BME280;4647;48.072;11.616;2024-01-27T10:35:02;97164.34;;;4.38;75.97
9225;BME280;4647;48.072;11.616;2024-01-27T10:37:33;97165.47;;;4.37;76.42
9225;BME280;4647;48.072;11.616;2024-01-27T10:40:06;97159.16;;;4.32;76.30
9225;BME280;4647;48.072;11.616;2024-01-27T10:42:36;97159.03;;;4.29;74.92
9225;BME280;4647;48.072;11.616;2024-01-27T10:45:06;97162.97;;;4.31;75.30
9225;BME280;4647;48.072;11.616;2024-01-27T10:47:34;97155.56;;;4.58;74.54
9225;BME280;4647;48.072;11.616;2024-01-27T10:50:07;97152.75;;;4.54;74.54
9225;BME280;4647;48.072;11.616;2024-01-27T10:52:38;97153.53;;;4.55;75.03
9225;BME280;4647;48.072;11.616;2024-01-27T10:55:12;97148.47;;;4.53;74.37
9225;BME280;4647;48.072;11.616;2024-01-27T10:57:42;97148.22;;;4.67;74.08
9225;BME280;4647;48.072;11.616;2024-01-27T11:00:13;97147.97;;;4.60;73.74
9225;BME280;4647;48.072;11.616;2024-01-27T11:02:44;97147.06;;;4.56;74.01
9225;BME280;4647;48.072;11.616;2024-01-27T11:05:20;97140.44;;;4.53;74.07
9225;BME280;4647;48.072;11.616;2024-01-27T11:07:49;97140.59;;;4.48;74.85
9225;BME280;4647;48.072;11.616;2024-01-27T11:10:20;97132.69;;;4.81;73.25
9225;BME280;4647;48.072;11.616;2024-01-27T11:12:49;97130.34;;;4.71;73.22
9225;BME280;4647;48.072;11.616;2024-01-27T11:15:18;97126.38;;;4.77;74.27
9225;BME280;4647;48.072;11.616;2024-01-27T11:17:47;97123.97;;;4.84;73.67
9225;BME280;4647;48.072;11.616;2024-01-27T11:20:16;97127.34;;;4.93;74.17
9225;BME280;4647;48.072;11.616;2024-01-27T11:22:44;97123.25;;;4.75;72.64
9225;BME280;4647;48.072;11.616;2024-01-27T11:25:16;97111.41;;;4.76;74.00
9225;BME280;4647;48.072;11.616;2024-01-27T11:27:48;97117.41;;;4.94;73.61
9225;BME280;4647;48.072;11.616;2024-01-27T11:30:25;97112.66;;;5.00;73.43
9225;BME280;4647;48.072;11.616;2024-01-27T11:32:56;97109.28;;;5.03;74.20
9225;BME280;4647;48.072;11.616;2024-01-27T11:35:24;97111.56;;;5.13;74.02
9225;BME280;4647;48.072;11.616;2024-01-27T11:37:54;97105.41;;;5.12;74.17
9225;BME280;4647;48.072;11.616;2024-01-27T11:40:22;97110.47;;;5.14;74.39
9225;BME280;4647;48.072;11.616;2024-01-27T11:42:58;97112.63;;;5.20;72.20
9225;BME280;4647;48.072;11.616;2024-01-27T11:45:26;97113.91;;;5.35;72.19
9225;BME280;4647;48.072;11.616;2024-01-27T11:47:56;97114.94;;;5.43;71.79
9225;BME280;4647;48.072;11.616;2024-01-27T11:50:24;97113.25;;;5.38;70.24
9225;BME280;4647;48.072;11.616;2024-01-27T11:52:53;97115.72;;;5.43;69.04
9225;BME280;4647;48.072;11.616;2024-01-27T11:55:22;97120.78;;;5.45;66.73
9225;BME280;4647;48.072;11.616;2024-01-27T11:57:50;97110.75;;;5.33;65.03
9225;BME280;4647;48.072;11.616;2024-01-27T12:00:21;97112.09;;;5.27;67.26
9225;BME280;4647;48.072;11.616;2024-01-27T12:02:50;97105.50;;;5.37;67.71
9225;BME280;4647;48.072;11.616;2024-01-27T12:05:19;97112.22;;;5.31;67.35
9225;BME280;4647;48.072;11.616;2024-01-27T12:07:48;97103.81;;;5.32;67.08
9225;BME280;4647;48.072;11.616;2024-01-27T12:10:16;97111.47;;;5.42;67.45
9225;BME280;4647;48.072;11.616;2024-01-27T12:12:45;97105.34;;;5.54;67.37
9225;BME280;4647;48.072;11.616;2024-01-27T12:15:13;97102.53;;;5.50;68.30
9225;BME280;4647;48.072;11.616;2024-01-27T12:17:52;97105.84;;;5.68;66.46
9225;BME280;4647;48.072;11.616;2024-01-27T12:20:22;97106.16;;;5.67;64.49
9225;BME280;4647;48.072;11.616;2024-01-27T12:23:03;97092.25;;;5.52;65.33
9225;BME280;4647;48.072;11.616;2024-01-27T12:25:32;97095.16;;;5.60;65.95
9225;BME280;4647;48.072;11.616;2024-01-27T12:28:02;97095.09;;;5.68;65.89
9225;BME280;4647;48.072;11.616;2024-01-27T12:30:32;97096.34;;;5.83;65.73
9225;BME280;4647;48.072;11.616;2024-01-27T12:33:09;97096.84;;;5.97;64.92
9225;BME280;4647;48.072;11.616;2024-01-27T12:35:37;97092.19;;;5.73;64.99
9225;BME280;4647;48.072;11.616;2024-01-27T12:38:07;97082.16;;;5.49;65.84
9225;BME280;4647;48.072;11.616;2024-01-27T12:40:35;97085.31;;;5.64;66.07
9225;BME280;4647;48.072;11.616;2024-01-27T12:43:06;97084.22;;;5.89;65.38
9225;BME280;4647;48.072;11.616;2024-01-27T12:45:35;97080.91;;;6.04;65.45
9225;BME280;4647;48.072;11.616;2024-01-27T12:48:07;97070.63;;;5.61;65.34
9225;BME280;4647;48.072;11.616;2024-01-27T12:50:35;97086.09;;;5.97;65.20
9225;BME280;4647;48.072;11.616;2024-01-27T12:53:06;97078.63;;;5.82;65.50
9225;BME280;4647;48.072;11.616;2024-01-27T12:55:38;97072.34;;;5.78;66.09
9225;BME280;4647;48.072;11.616;2024-01-27T12:58:07;97066.63;;;5.79;66.32
9225;BME280;4647;48.072;11.616;2024-01-27T13:00:35;97063.44;;;6.23;63.89
9225;BME280;4647;48.072;11.616;2024-01-27T13:03:06;97064.00;;;5.92;64.06
9225;BME280;4647;48.072;11.616;2024-01-27T13:05:35;97070.28;;;5.96;64.57
9225;BME280;4647;48.072;11.616;2024-01-27T13:08:04;97062.09;;;5.92;64.64
9225;BME280;4647;48.072;11.616;2024-01-27T13:10:34;97063.88;;;6.25;62.97
9225;BME280;4647;48.072;11.616;2024-01-27T13:13:02;97067.47;;;6.04;63.15
9225;BME280;4647;48.072;11.616;2024-01-27T13:15:31;97065.22;;;5.94;63.16
9225;BME280;4647;48.072;11.616;2024-01-27T13:17:59;97059.50;;;5.96;63.76
9225;BME280;4647;48.072;11.616;2024-01-27T13:20:30;97051.97;;;6.13;63.62
9225;BME280;4647;48.072;11.616;2024-01-27T13:22:59;97051.78;;;6.06;63.82
9225;BME280;4647;48.072;11.616;2024-01-27T13:25:27;97056.38;;;6.06;63.60
9225;BME280;4647;48.072;11.616;2024-01-27T13:27:56;97059.25;;;5.89;63.77
9225;BME280;4647;48.072;11.616;2024-01-27T13:30:24;97068.47;;;6.12;62.89
9225;BME280;4647;48.072;11.616;2024-01-27T13:32:54;97071.38;;;6.07;62.20
9225;BME280;4647;48.072;11.616;2024-01-27T13:35:22;97063.88;;;6.25;61.62
9225;BME280;4647;48.072;11.616;2024-01-27T13:37:54;97073.84;;;6.12;61.17